sensor_id;sensor_type;location;lat;lon;timestamp;temperature;humidity
12845;DHT22;6489;48.508;9.206;2022-10-31T00:01:17;11.80;1.00
12845;DHT22;6489;48.508;9.206;2022-10-31T00:04:40;12.00;99.90
12845;DHT22;6489;48.508;9.206;2022-10-31T00:11:25;12.00;1.00
12845;DHT22;6489;48.508;9.206;2022-10-31T00:14:47;12.20;95.80
12845;DHT22;6489;48.508;9.206;2022-10-31T00:18:10;11.70;99.90
12845;DHT22;6489;48.508;9.206;2022-10-31T00:21:32;12.00;1.00
12845;DHT22;6489;48.508;9.206;2022-10-31T00:24:54;12.10;99.90
12845;DHT22;6489;48.508;9.206;2022-10-31T00:31:39;11.60;99.90
12845;DHT22;6489;48.508;9.206;2022-10-31T00:38:23;11.40;99.90
12845;DHT22;6489;48.508;9.206;2022-10-31T00:41:45;11.90;99.90
12845;DHT22;6489;48.508;9.206;2022-10-31T00:45:09;11.60;99.90
12845;DHT22;6489;48.508;9.206;2022-10-31T00:48:31;11.10;99.90
12845;DHT22;6489;48.508;9.206;2022-10-31T00:51:53;11.30;1.00
12845;DHT22;6489;48.508;9.206;2022-10-31T00:55:15;11.30;99.90
12845;DHT22;6489;48.508;9.206;2022-10-31T00:58:37;11.60;99.90
12845;DHT22;6489;48.508;9.206;2022-10-31T01:05:22;11.00;99.90
12845;DHT22;6489;48.508;9.206;2022-10-31T01:08:47;11.10;99.90
12845;DHT22;6489;48.508;9.206;2022-10-31T01:12:09;11.30;99.90
12845;DHT22;6489;48.508;9.206;2022-10-31T01:15:30;11.00;99.90
12845;DHT22;6489;48.508;9.206;2022-10-31T01:18:54;10.90;1.00
12845;DHT22;6489;48.508;9.206;2022-10-31T01:22:15;11.00;99.90
12845;DHT22;6489;48.508;9.206;2022-10-31T01:25:37;10.40;99.90
12845;DHT22;6489;48.508;9.206;2022-10-31T01:29:00;10.70;1.00
12845;DHT22;6489;48.508;9.206;2022-10-31T01:32:23;10.70;99.90
12845;DHT22;6489;48.508;9.206;2022-10-31T01:35:46;10.60;1.00
12845;DHT22;6489;48.508;9.206;2022-10-31T01:39:10;10.50;1.00
12845;DHT22;6489;48.508;9.206;2022-10-31T01:42:32;10.60;99.90
12845;DHT22;6489;48.508;9.206;2022-10-31T01:49:19;10.30;99.90
12845;DHT22;6489;48.508;9.206;2022-10-31T01:52:46;9.80;8.20
12845;DHT22;6489;48.508;9.206;2022-10-31T01:56:09;10.00;99.90
12845;DHT22;6489;48.508;9.206;2022-10-31T01:59:32;10.00;99.90
12845;DHT22;6489;48.508;9.206;2022-10-31T02:02:57;10.20;99.90
12845;DHT22;6489;48.508;9.206;2022-10-31T02:06:27;10.10;1.00
12845;DHT22;6489;48.508;9.206;2022-10-31T02:09:54;9.70;99.90
12845;DHT22;6489;48.508;9.206;2022-10-31T02:13:17;10.00;1.00
12845;DHT22;6489;48.508;9.206;2022-10-31T02:16:40;9.90;99.90
12845;DHT22;6489;48.508;9.206;2022-10-31T02:20:12;10.00;1.00
12845;DHT22;6489;48.508;9.206;2022-10-31T02:31:31;10.00;1.00
12845;DHT22;6489;48.508;9.206;2022-10-31T02:34:58;10.00;1.00
12845;DHT22;6489;48.508;9.206;2022-10-31T02:38:29;10.00;1.00
12845;DHT22;6489;48.508;9.206;2022-10-31T02:45:25;10.00;1.00
12845;DHT22;6489;48.508;9.206;2022-10-31T02:48:54;9.90;99.90
12845;DHT22;6489;48.508;9.206;2022-10-31T02:52:18;9.70;99.90
12845;DHT22;6489;48.508;9.206;2022-10-31T02:55:53;9.90;1.00
12845;DHT22;6489;48.508;9.206;2022-10-31T02:59:16;9.80;99.90
12845;DHT22;6489;48.508;9.206;2022-10-31T03:02:46;9.60;1.00
12845;DHT22;6489;48.508;9.206;2022-10-31T03:06:16;9.80;1.00
12845;DHT22;6489;48.508;9.206;2022-10-31T03:09:46;9.80;1.00
12845;DHT22;6489;48.508;9.206;2022-10-31T03:13:21;9.70;99.90
12845;DHT22;6489;48.508;9.206;2022-10-31T03:16:47;9.50;99.90
12845;DHT22;6489;48.508;9.206;2022-10-31T03:23:34;9.40;1.00
12845;DHT22;6489;48.508;9.206;2022-10-31T03:26:59;9.70;1.00
12845;DHT22;6489;48.508;9.206;2022-10-31T03:30:22;9.40;99.90
12845;DHT22;6489;48.508;9.206;2022-10-31T03:33:45;9.50;99.90
12845;DHT22;6489;48.508;9.206;2022-10-31T03:44:02;9.40;1.00
12845;DHT22;6489;48.508;9.206;2022-10-31T03:47:26;9.20;1.00
12845;DHT22;6489;48.508;9.206;2022-10-31T03:50:53;9.50;1.00
12845;DHT22;6489;48.508;9.206;2022-10-31T03:54:24;9.50;1.00
12845;DHT22;6489;48.508;9.206;2022-10-31T03:57:52;9.50;1.00
12845;DHT22;6489;48.508;9.206;2022-10-31T04:04:39;9.40;1.00
12845;DHT22;6489;48.508;9.206;2022-10-31T04:08:04;9.40;1.00
12845;DHT22;6489;48.508;9.206;2022-10-31T04:11:30;8.90;99.90
12845;DHT22;6489;48.508;9.206;2022-10-31T04:14:55;9.20;99.90
12845;DHT22;6489;48.508;9.206;2022-10-31T04:18:17;9.10;1.00
12845;DHT22;6489;48.508;9.206;2022-10-31T04:21:39;9.40;1.00
12845;DHT22;6489;48.508;9.206;2022-10-31T04:25:04;9.10;1.00
12845;DHT22;6489;48.508;9.206;2022-10-31T04:28:26;9.40;1.00
12845;DHT22;6489;48.508;9.206;2022-10-31T04:31:49;9.20;1.00
12845;DHT22;6489;48.508;9.206;2022-10-31T04:38:34;8.60;1.00
12845;DHT22;6489;48.508;9.206;2022-10-31T04:41:55;9.10;1.00
12845;DHT22;6489;48.508;9.206;2022-10-31T04:48:41;9.40;99.90
12845;DHT22;6489;48.508;9.206;2022-10-31T04:52:03;8.80;1.00
12845;DHT22;6489;48.508;9.206;2022-10-31T04:55:25;8.90;99.90
12845;DHT22;6489;48.508;9.206;2022-10-31T05:02:09;9.10;1.00
12845;DHT22;6489;48.508;9.206;2022-10-31T05:05:32;8.90;1.00
12845;DHT22;6489;48.508;9.206;2022-10-31T05:08:54;9.10;1.00
12845;DHT22;6489;48.508;9.206;2022-10-31T05:12:16;8.70;1.00
12845;DHT22;6489;48.508;9.206;2022-10-31T05:15:38;9.30;1.00
12845;DHT22;6489;48.508;9.206;2022-10-31T05:19:00;9.20;1.00
12845;DHT22;6489;48.508;9.206;2022-10-31T05:22:23;8.80;1.00
12845;DHT22;6489;48.508;9.206;2022-10-31T05:25:45;8.80;1.00
12845;DHT22;6489;48.508;9.206;2022-10-31T05:29:07;8.70;1.00
12845;DHT22;6489;48.508;9.206;2022-10-31T05:32:28;8.80;1.00
12845;DHT22;6489;48.508;9.206;2022-10-31T05:35:51;9.00;1.00
12845;DHT22;6489;48.508;9.206;2022-10-31T05:39:14;8.80;99.90
12845;DHT22;6489;48.508;9.206;2022-10-31T05:42:38;8.70;23.90
12845;DHT22;6489;48.508;9.206;2022-10-31T05:45:59;9.00;1.00
12845;DHT22;6489;48.508;9.206;2022-10-31T05:52:44;8.70;1.00
12845;DHT22;6489;48.508;9.206;2022-10-31T05:56:07;8.70;1.00
12845;DHT22;6489;48.508;9.206;2022-10-31T05:59:29;8.70;1.00
12845;DHT22;6489;48.508;9.206;2022-10-31T06:02:58;9.10;1.00
12845;DHT22;6489;48.508;9.206;2022-10-31T06:06:20;8.70;99.90
12845;DHT22;6489;48.508;9.206;2022-10-31T06:09:42;8.90;1.00
12845;DHT22;6489;48.508;9.206;2022-10-31T06:13:05;8.20;1.00
12845;DHT22;6489;48.508;9.206;2022-10-31T06:16:28;8.80;1.00
12845;DHT22;6489;48.508;9.206;2022-10-31T06:19:49;9.10;1.00
12845;DHT22;6489;48.508;9.206;2022-10-31T06:23:11;9.00;1.00
12845;DHT22;6489;48.508;9.206;2022-10-31T06:26:33;9.00;1.00
12845;DHT22;6489;48.508;9.206;2022-10-31T06:29:56;8.60;1.00
12845;DHT22;6489;48.508;9.206;2022-10-31T06:33:18;8.70;1.00
12845;DHT22;6489;48.508;9.206;2022-10-31T06:36:40;8.80;1.00
12845;DHT22;6489;48.508;9.206;2022-10-31T06:40:02;8.30;1.00
12845;DHT22;6489;48.508;9.206;2022-10-31T06:43:23;9.00;1.00
12845;DHT22;6489;48.508;9.206;2022-10-31T06:46:47;8.90;1.00
12845;DHT22;6489;48.508;9.206;2022-10-31T06:50:09;8.80;1.00
12845;DHT22;6489;48.508;9.206;2022-10-31T06:56:53;8.70;1.00
12845;DHT22;6489;48.508;9.206;2022-10-31T07:00:15;8.90;1.00
12845;DHT22;6489;48.508;9.206;2022-10-31T07:03:38;9.10;1.00
12845;DHT22;6489;48.508;9.206;2022-10-31T07:07:00;9.40;1.00
12845;DHT22;6489;48.508;9.206;2022-10-31T07:10:23;9.60;99.90
12845;DHT22;6489;48.508;9.206;2022-10-31T07:13:44;10.00;13.20
12845;DHT22;6489;48.508;9.206;2022-10-31T07:17:06;9.80;1.00
12845;DHT22;6489;48.508;9.206;2022-10-31T07:20:30;9.70;1.00
12845;DHT22;6489;48.508;9.206;2022-10-31T07:23:52;10.50;1.00
12845;DHT22;6489;48.508;9.206;2022-10-31T07:27:14;10.70;1.00
12845;DHT22;6489;48.508;9.206;2022-10-31T07:30:36;11.40;99.90
12845;DHT22;6489;48.508;9.206;2022-10-31T07:33:58;10.30;99.90
12845;DHT22;6489;48.508;9.206;2022-10-31T07:37:21;11.60;1.00
12845;DHT22;6489;48.508;9.206;2022-10-31T07:50:50;12.10;99.90
12845;DHT22;6489;48.508;9.206;2022-10-31T07:57:35;12.70;99.90
12845;DHT22;6489;48.508;9.206;2022-10-31T08:04:21;12.60;99.90
12845;DHT22;6489;48.508;9.206;2022-10-31T08:07:43;12.20;99.90
12845;DHT22;6489;48.508;9.206;2022-10-31T08:11:06;12.40;99.90
12845;DHT22;6489;48.508;9.206;2022-10-31T08:14:28;12.60;99.90
12845;DHT22;6489;48.508;9.206;2022-10-31T08:17:50;12.60;99.90
12845;DHT22;6489;48.508;9.206;2022-10-31T08:21:12;12.60;99.90
12845;DHT22;6489;48.508;9.206;2022-10-31T08:38:04;13.50;99.90
12845;DHT22;6489;48.508;9.206;2022-10-31T08:41:26;14.00;55.20
12845;DHT22;6489;48.508;9.206;2022-10-31T08:44:49;13.70;15.30
12845;DHT22;6489;48.508;9.206;2022-10-31T08:58:19;14.20;12.10
12845;DHT22;6489;48.508;9.206;2022-10-31T09:01:43;14.10;1.00
12845;DHT22;6489;48.508;9.206;2022-10-31T09:05:06;14.90;1.00
12845;DHT22;6489;48.508;9.206;2022-10-31T09:08:30;14.20;1.00
12845;DHT22;6489;48.508;9.206;2022-10-31T09:18:38;14.80;1.00
12845;DHT22;6489;48.508;9.206;2022-10-31T09:22:00;13.70;1.00
12845;DHT22;6489;48.508;9.206;2022-10-31T09:25:22;15.20;1.00
12845;DHT22;6489;48.508;9.206;2022-10-31T09:28:43;15.50;1.00
12845;DHT22;6489;48.508;9.206;2022-10-31T09:35:30;15.70;1.00
12845;DHT22;6489;48.508;9.206;2022-10-31T09:42:41;15.70;1.00
12845;DHT22;6489;48.508;9.206;2022-10-31T09:46:09;16.60;1.00
12845;DHT22;6489;48.508;9.206;2022-10-31T09:53:07;16.40;1.00
12845;DHT22;6489;48.508;9.206;2022-10-31T09:59:55;17.10;1.00
12845;DHT22;6489;48.508;9.206;2022-10-31T10:06:47;17.90;1.00
12845;DHT22;6489;48.508;9.206;2022-10-31T10:13:55;17.80;1.00
12845;DHT22;6489;48.508;9.206;2022-10-31T10:17:29;18.00;1.00
12845;DHT22;6489;48.508;9.206;2022-10-31T10:21:06;17.70;1.00
12845;DHT22;6489;48.508;9.206;2022-10-31T10:24:42;17.90;1.00
12845;DHT22;6489;48.508;9.206;2022-10-31T10:28:16;18.30;1.00
12845;DHT22;6489;48.508;9.206;2022-10-31T10:31:41;18.20;1.00
12845;DHT22;6489;48.508;9.206;2022-10-31T10:35:14;18.10;1.00
12845;DHT22;6489;48.508;9.206;2022-10-31T10:38:38;18.00;1.00
12845;DHT22;6489;48.508;9.206;2022-10-31T10:42:01;18.10;1.00
12845;DHT22;6489;48.508;9.206;2022-10-31T10:45:51;18.00;1.00
12845;DHT22;6489;48.508;9.206;2022-10-31T10:49:35;18.20;1.00
12845;DHT22;6489;48.508;9.206;2022-10-31T10:53:04;18.50;1.00
12845;DHT22;6489;48.508;9.206;2022-10-31T11:03:38;19.00;1.00
12845;DHT22;6489;48.508;9.206;2022-10-31T11:07:01;19.40;1.00
12845;DHT22;6489;48.508;9.206;2022-10-31T11:10:24;19.80;1.00
12845;DHT22;6489;48.508;9.206;2022-10-31T11:13:48;19.50;1.00
12845;DHT22;6489;48.508;9.206;2022-10-31T11:17:19;19.90;1.00
12845;DHT22;6489;48.508;9.206;2022-10-31T11:20:51;20.20;1.00
12845;DHT22;6489;48.508;9.206;2022-10-31T11:24:16;20.50;1.00
12845;DHT22;6489;48.508;9.206;2022-10-31T11:27:38;20.20;1.00
12845;DHT22;6489;48.508;9.206;2022-10-31T11:34:29;20.50;1.00
12845;DHT22;6489;48.508;9.206;2022-10-31T11:37:55;20.90;1.00
12845;DHT22;6489;48.508;9.206;2022-10-31T11:41:23;21.00;1.00
12845;DHT22;6489;48.508;9.206;2022-10-31T11:48:16;21.10;1.00
12845;DHT22;6489;48.508;9.206;2022-10-31T12:02:01;20.90;1.00
12845;DHT22;6489;48.508;9.206;2022-10-31T12:05:25;20.60;1.00
12845;DHT22;6489;48.508;9.206;2022-10-31T12:08:49;20.40;1.00
12845;DHT22;6489;48.508;9.206;2022-10-31T12:12:47;20.20;1.00
12845;DHT22;6489;48.508;9.206;2022-10-31T12:19:41;19.70;1.00
12845;DHT22;6489;48.508;9.206;2022-10-31T12:23:12;19.60;1.00
12845;DHT22;6489;48.508;9.206;2022-10-31T12:26:45;19.50;1.00
12845;DHT22;6489;48.508;9.206;2022-10-31T12:30:17;19.40;1.00
12845;DHT22;6489;48.508;9.206;2022-10-31T12:33:47;19.30;1.00
12845;DHT22;6489;48.508;9.206;2022-10-31T12:37:19;19.20;1.00
12845;DHT22;6489;48.508;9.206;2022-10-31T12:44:55;19.00;1.00
12845;DHT22;6489;48.508;9.206;2022-10-31T12:48:45;18.90;1.00
12845;DHT22;6489;48.508;9.206;2022-10-31T12:52:24;18.70;1.00
12845;DHT22;6489;48.508;9.206;2022-10-31T12:59:23;17.90;1.00
12845;DHT22;6489;48.508;9.206;2022-10-31T13:02:51;19.20;1.00
12845;DHT22;6489;48.508;9.206;2022-10-31T13:06:19;18.90;1.00
12845;DHT22;6489;48.508;9.206;2022-10-31T13:09:48;18.90;1.00
12845;DHT22;6489;48.508;9.206;2022-10-31T13:13:15;18.60;1.00
12845;DHT22;6489;48.508;9.206;2022-10-31T13:16:42;19.40;1.00
12845;DHT22;6489;48.508;9.206;2022-10-31T13:20:24;19.00;1.00
12845;DHT22;6489;48.508;9.206;2022-10-31T13:23:50;19.30;1.00
12845;DHT22;6489;48.508;9.206;2022-10-31T13:27:14;19.40;1.00
12845;DHT22;6489;48.508;9.206;2022-10-31T13:37:32;19.80;1.00
12845;DHT22;6489;48.508;9.206;2022-10-31T13:40:59;20.20;1.00
12845;DHT22;6489;48.508;9.206;2022-10-31T13:44:23;19.80;1.00
12845;DHT22;6489;48.508;9.206;2022-10-31T13:51:25;19.80;1.00
12845;DHT22;6489;48.508;9.206;2022-10-31T13:54:50;20.40;1.00
12845;DHT22;6489;48.508;9.206;2022-10-31T13:58:28;19.90;1.00
12845;DHT22;6489;48.508;9.206;2022-10-31T14:05:23;19.90;1.00
12845;DHT22;6489;48.508;9.206;2022-10-31T14:08:49;19.20;1.00
12845;DHT22;6489;48.508;9.206;2022-10-31T14:15:40;19.60;1.00
12845;DHT22;6489;48.508;9.206;2022-10-31T14:19:06;19.40;1.00
12845;DHT22;6489;48.508;9.206;2022-10-31T14:32:52;19.50;1.00
12845;DHT22;6489;48.508;9.206;2022-10-31T14:36:21;19.50;1.00
12845;DHT22;6489;48.508;9.206;2022-10-31T14:39:55;19.30;1.00
12845;DHT22;6489;48.508;9.206;2022-10-31T14:43:40;19.30;1.00
12845;DHT22;6489;48.508;9.206;2022-10-31T14:47:13;19.20;1.00
12845;DHT22;6489;48.508;9.206;2022-10-31T14:54:05;19.20;1.00
12845;DHT22;6489;48.508;9.206;2022-10-31T15:07:52;18.70;1.00
12845;DHT22;6489;48.508;9.206;2022-10-31T15:11:15;18.60;1.00
12845;DHT22;6489;48.508;9.206;2022-10-31T15:14:37;19.00;1.00
12845;DHT22;6489;48.508;9.206;2022-10-31T15:18:00;18.90;1.00
12845;DHT22;6489;48.508;9.206;2022-10-31T15:21:26;18.30;1.00
12845;DHT22;6489;48.508;9.206;2022-10-31T15:24:50;18.40;1.00
12845;DHT22;6489;48.508;9.206;2022-10-31T15:28:22;18.00;1.00
12845;DHT22;6489;48.508;9.206;2022-10-31T15:38:42;17.80;1.00
12845;DHT22;6489;48.508;9.206;2022-10-31T15:42:15;17.30;1.00
12845;DHT22;6489;48.508;9.206;2022-10-31T15:49:01;17.30;1.00
12845;DHT22;6489;48.508;9.206;2022-10-31T15:52:28;17.00;1.00
12845;DHT22;6489;48.508;9.206;2022-10-31T15:55:54;16.90;1.00
12845;DHT22;6489;48.508;9.206;2022-10-31T15:59:20;16.80;1.00
12845;DHT22;6489;48.508;9.206;2022-10-31T16:02:43;16.10;1.00
12845;DHT22;6489;48.508;9.206;2022-10-31T16:12:51;16.90;63.00
12845;DHT22;6489;48.508;9.206;2022-10-31T16:19:48;16.40;1.00
12845;DHT22;6489;48.508;9.206;2022-10-31T16:23:14;16.30;1.00
12845;DHT22;6489;48.508;9.206;2022-10-31T16:30:01;15.80;1.00
12845;DHT22;6489;48.508;9.206;2022-10-31T16:36:49;14.80;56.00
12845;DHT22;6489;48.508;9.206;2022-10-31T16:40:12;15.40;82.10
12845;DHT22;6489;48.508;9.206;2022-10-31T16:43:34;15.80;82.80
12845;DHT22;6489;48.508;9.206;2022-10-31T16:47:11;15.40;1.00
12845;DHT22;6489;48.508;9.206;2022-10-31T16:50:37;15.40;1.00
12845;DHT22;6489;48.508;9.206;2022-10-31T16:53:59;14.80;99.90
12845;DHT22;6489;48.508;9.206;2022-10-31T17:00:48;14.00;99.90
12845;DHT22;6489;48.508;9.206;2022-10-31T17:04:13;15.00;1.00
12845;DHT22;6489;48.508;9.206;2022-10-31T17:07:36;14.80;1.00
12845;DHT22;6489;48.508;9.206;2022-10-31T17:10:58;15.00;99.90
12845;DHT22;6489;48.508;9.206;2022-10-31T17:17:42;14.90;99.90
12845;DHT22;6489;48.508;9.206;2022-10-31T17:24:28;14.80;99.90
12845;DHT22;6489;48.508;9.206;2022-10-31T17:27:50;14.40;99.90
12845;DHT22;6489;48.508;9.206;2022-10-31T17:31:20;14.30;1.00
12845;DHT22;6489;48.508;9.206;2022-10-31T17:38:05;13.90;99.90
12845;DHT22;6489;48.508;9.206;2022-10-31T17:41:28;14.20;1.00
12845;DHT22;6489;48.508;9.206;2022-10-31T17:48:12;14.10;99.90
12845;DHT22;6489;48.508;9.206;2022-10-31T17:51:34;14.40;1.00
12845;DHT22;6489;48.508;9.206;2022-10-31T17:54:56;13.80;99.90
12845;DHT22;6489;48.508;9.206;2022-10-31T17:58:19;13.90;1.00
12845;DHT22;6489;48.508;9.206;2022-10-31T18:05:04;13.90;69.50
12845;DHT22;6489;48.508;9.206;2022-10-31T18:08:26;13.80;1.00
12845;DHT22;6489;48.508;9.206;2022-10-31T18:11:48;13.80;99.90
12845;DHT22;6489;48.508;9.206;2022-10-31T18:21:56;13.70;99.90
12845;DHT22;6489;48.508;9.206;2022-10-31T18:32:04;13.70;99.90
12845;DHT22;6489;48.508;9.206;2022-10-31T18:38:49;13.20;99.90
12845;DHT22;6489;48.508;9.206;2022-10-31T18:45:33;13.20;99.90
12845;DHT22;6489;48.508;9.206;2022-10-31T18:48:56;13.00;99.90
12845;DHT22;6489;48.508;9.206;2022-10-31T18:55:40;12.20;99.90
12845;DHT22;6489;48.508;9.206;2022-10-31T18:59:02;12.60;99.90
12845;DHT22;6489;48.508;9.206;2022-10-31T19:05:48;12.80;1.00
12845;DHT22;6489;48.508;9.206;2022-10-31T19:09:10;13.00;99.90
12845;DHT22;6489;48.508;9.206;2022-10-31T19:12:32;12.80;1.00
12845;DHT22;6489;48.508;9.206;2022-10-31T19:15:53;13.00;99.90
12845;DHT22;6489;48.508;9.206;2022-10-31T19:19:15;13.00;99.90
12845;DHT22;6489;48.508;9.206;2022-10-31T19:22:39;12.80;99.90
12845;DHT22;6489;48.508;9.206;2022-10-31T19:32:46;11.80;1.00
12845;DHT22;6489;48.508;9.206;2022-10-31T19:36:09;12.40;1.00
12845;DHT22;6489;48.508;9.206;2022-10-31T19:39:33;11.60;1.00
12845;DHT22;6489;48.508;9.206;2022-10-31T19:42:57;11.40;1.00
12845;DHT22;6489;48.508;9.206;2022-10-31T19:49:42;11.90;99.90
12845;DHT22;6489;48.508;9.206;2022-10-31T19:53:04;11.60;1.00
12845;DHT22;6489;48.508;9.206;2022-10-31T19:56:28;11.80;1.00
12845;DHT22;6489;48.508;9.206;2022-10-31T20:03:12;12.10;99.90
12845;DHT22;6489;48.508;9.206;2022-10-31T20:06:36;12.80;1.00
12845;DHT22;6489;48.508;9.206;2022-10-31T20:13:23;12.80;1.00
12845;DHT22;6489;48.508;9.206;2022-10-31T20:16:45;12.90;1.40
12845;DHT22;6489;48.508;9.206;2022-10-31T20:20:07;13.20;1.00
12845;DHT22;6489;48.508;9.206;2022-10-31T20:23:30;12.90;99.90
12845;DHT22;6489;48.508;9.206;2022-10-31T20:26:52;12.80;99.90
12845;DHT22;6489;48.508;9.206;2022-10-31T20:30:15;12.90;1.00
12845;DHT22;6489;48.508;9.206;2022-10-31T20:33:37;13.20;99.90
12845;DHT22;6489;48.508;9.206;2022-10-31T20:36:59;12.60;99.90
12845;DHT22;6489;48.508;9.206;2022-10-31T20:43:43;12.60;99.90
12845;DHT22;6489;48.508;9.206;2022-10-31T20:47:07;13.00;1.00
12845;DHT22;6489;48.508;9.206;2022-10-31T20:50:28;13.40;99.90
12845;DHT22;6489;48.508;9.206;2022-10-31T20:57:13;13.10;99.90
12845;DHT22;6489;48.508;9.206;2022-10-31T21:14:06;13.40;99.90
12845;DHT22;6489;48.508;9.206;2022-10-31T21:17:28;13.00;99.90
12845;DHT22;6489;48.508;9.206;2022-10-31T21:20:51;13.00;1.00
12845;DHT22;6489;48.508;9.206;2022-10-31T21:24:15;13.00;1.00
12845;DHT22;6489;48.508;9.206;2022-10-31T21:27:37;13.00;99.90
12845;DHT22;6489;48.508;9.206;2022-10-31T21:30:59;13.60;99.90
12845;DHT22;6489;48.508;9.206;2022-10-31T21:34:21;12.80;99.90
12845;DHT22;6489;48.508;9.206;2022-10-31T21:37:44;13.10;1.00
12845;DHT22;6489;48.508;9.206;2022-10-31T21:44:29;13.20;99.90
12845;DHT22;6489;48.508;9.206;2022-10-31T21:47:51;13.00;99.90
12845;DHT22;6489;48.508;9.206;2022-10-31T21:51:14;12.80;99.90
12845;DHT22;6489;48.508;9.206;2022-10-31T21:54:37;13.20;99.90
12845;DHT22;6489;48.508;9.206;2022-10-31T21:57:59;13.30;99.90
12845;DHT22;6489;48.508;9.206;2022-10-31T22:04:44;12.80;99.90
12845;DHT22;6489;48.508;9.206;2022-10-31T22:08:08;13.40;99.90
12845;DHT22;6489;48.508;9.206;2022-10-31T22:14:53;12.70;99.90
12845;DHT22;6489;48.508;9.206;2022-10-31T22:18:15;12.60;99.90
12845;DHT22;6489;48.508;9.206;2022-10-31T22:21:39;12.70;99.90
12845;DHT22;6489;48.508;9.206;2022-10-31T22:25:01;12.40;99.90
12845;DHT22;6489;48.508;9.206;2022-10-31T22:28:27;12.10;99.90
12845;DHT22;6489;48.508;9.206;2022-10-31T22:38:36;12.30;99.90
12845;DHT22;6489;48.508;9.206;2022-10-31T22:41:59;11.90;99.90
12845;DHT22;6489;48.508;9.206;2022-10-31T22:45:22;12.20;22.50
12845;DHT22;6489;48.508;9.206;2022-10-31T22:55:30;11.70;99.90
12845;DHT22;6489;48.508;9.206;2022-10-31T22:58:52;11.60;99.90
12845;DHT22;6489;48.508;9.206;2022-10-31T23:02:15;11.70;99.90
12845;DHT22;6489;48.508;9.206;2022-10-31T23:12:22;11.80;99.90
12845;DHT22;6489;48.508;9.206;2022-10-31T23:15:58;12.00;99.90
12845;DHT22;6489;48.508;9.206;2022-10-31T23:19:23;11.90;1.00
12845;DHT22;6489;48.508;9.206;2022-10-31T23:22:45;11.70;99.90
12845;DHT22;6489;48.508;9.206;2022-10-31T23:26:07;12.40;99.90
12845;DHT22;6489;48.508;9.206;2022-10-31T23:29:48;12.30;99.90
12845;DHT22;6489;48.508;9.206;2022-10-31T23:33:10;11.80;99.90
12845;DHT22;6489;48.508;9.206;2022-10-31T23:36:33;11.80;99.90
12845;DHT22;6489;48.508;9.206;2022-10-31T23:39:55;12.00;99.90
12845;DHT22;6489;48.508;9.206;2022-10-31T23:43:17;11.70;1.00
12845;DHT22;6489;48.508;9.206;2022-10-31T23:50:01;11.90;96.20
12845;DHT22;6489;48.508;9.206;2022-10-31T23:53:24;11.80;99.90
12845;DHT22;6489;48.508;9.206;2022-10-31T23:56:46;12.40;99.90
